Hovedside
METAR-TAF:

METAR-TAF

Lufthavner :

Agadez, Niger

breddegrad: 16-58N, lengdegrad: 007-59E, høyde over havet: 501 m

Gjeldene værobservasjon

Denne rapporten ble laget for 1 time og 19 minutter siden, klokken 16:00 UTC
Vind 8 kt fra Vest-nordvest
Temperatur 39°C
Luftfuktighet 24%
Trykk 1008 hPa
Sikt: 6000 m

METAR: DRZA 171600Z 29008KT 6000 NSC 39/15 Q1008

Tid: 18:19 (17:19 UTC)

Varsel

Denne rapporten ble laget for 6 timer og 19 minutter siden, klokken 11:00 UTC
Varsel gyldig fra 17. klokken 12 UTC til 18. klokken 12 UTC
Vind 10 kt fra Vest
Sikt: 8000 m
Midlertidig
fra 17. klokken 13 UTC til 17. klokken 18 UTC
Vind 20 kt fra Øst-nordøst med vindkast opp mot 35 kt
Sikt: 0800 m
Spredte skyer i en høyde av 3500 ft
Få skyer i en høyde av 4500 ft, Bygeskyer.
vindbyger, støvdrev, torden, regn,

TAF: DRZA 171100Z 1712/1812 26010KT 8000 NSC TEMPO 1713/1718 06020G35KT 0800 SQ BLDU TSRA SCT035 FEW045CB

Værobservasjoner og værvarsel for over 4000 flyplasser (METAR- og TAF-rapporter).

Tilgjengelige stasjoner er representert av de røde og gule prikkene på kartet.

Hold musepekeren over prikken for å se navnet på stasjonen.

Klikk så for å se værobservasjoner og -varsler.

For å forandre kartet kan du klikke på den grønne knappen med svart kryss for å zoome inn, på den grønne knappen med strek for å zoome ut, eller på de grønne pilene for å se tilstøtende kart.


METAR-TAF: